createdAt,value
2022-08-30T00:00:38.039Z,16.67
2022-08-30T00:02:53.052Z,16.68
2022-08-30T00:03:53.074Z,16.67
2022-08-30T00:04:52.835Z,16.67
2022-08-30T00:05:52.839Z,16.68
2022-08-30T00:06:52.812Z,16.70
2022-08-30T00:07:52.805Z,16.71
2022-08-30T00:08:52.805Z,16.71
2022-08-30T00:09:52.790Z,16.73
2022-08-30T00:10:52.780Z,16.75
2022-08-30T00:11:52.893Z,16.76
2022-08-30T00:12:52.746Z,16.75
2022-08-30T00:13:52.737Z,16.76
2022-08-30T00:14:52.738Z,16.75
2022-08-30T00:15:52.776Z,16.76
2022-08-30T00:16:52.707Z,16.75
2022-08-30T00:17:52.699Z,16.75
2022-08-30T00:18:52.682Z,16.75
2022-08-30T00:19:52.698Z,16.75
2022-08-30T00:20:52.674Z,16.75
2022-08-30T00:21:52.659Z,16.70
2022-08-30T00:22:52.639Z,16.67
2022-08-30T00:23:52.660Z,16.63
2022-08-30T00:24:52.610Z,16.60
2022-08-30T00:25:52.613Z,16.58
2022-08-30T00:26:52.600Z,16.58
2022-08-30T00:27:52.595Z,16.57
2022-08-30T00:28:52.577Z,16.57
2022-08-30T00:29:53.403Z,16.57
2022-08-30T00:30:52.629Z,16.58
2022-08-30T00:31:52.552Z,16.58
2022-08-30T00:32:52.535Z,16.57
2022-08-30T00:33:52.537Z,16.57
2022-08-30T00:34:52.514Z,16.57
2022-08-30T00:35:52.503Z,16.56
2022-08-30T00:36:52.486Z,16.56
2022-08-30T00:37:52.616Z,16.56
2022-08-30T00:38:52.555Z,16.53
2022-08-30T00:39:52.463Z,16.52
2022-08-30T00:40:52.446Z,16.52
2022-08-30T00:41:52.437Z,16.49
2022-08-30T00:42:55.630Z,16.48
2022-08-30T00:43:53.426Z,16.46
2022-08-30T00:44:52.414Z,16.45
2022-08-30T00:45:52.428Z,16.41
2022-08-30T00:46:52.437Z,16.39
2022-08-30T00:47:52.387Z,16.38
2022-08-30T00:48:52.357Z,16.38
2022-08-30T00:49:52.359Z,16.35
2022-08-30T00:50:52.349Z,16.34
2022-08-30T00:51:52.337Z,16.31
2022-08-30T00:52:52.400Z,16.30
2022-08-30T00:53:52.320Z,16.28
2022-08-30T00:54:52.310Z,16.25
2022-08-30T00:55:52.290Z,16.25
2022-08-30T00:56:52.295Z,16.25
2022-08-30T00:57:52.272Z,16.23
2022-08-30T00:58:52.254Z,16.23
2022-08-30T00:59:52.252Z,16.23
2022-08-30T01:00:52.231Z,16.23
2022-08-30T01:01:52.296Z,16.25
2022-08-30T01:02:52.316Z,16.24
2022-08-30T01:03:52.223Z,16.23
2022-08-30T01:04:52.186Z,16.20
2022-08-30T01:05:52.191Z,16.15
2022-08-30T01:06:52.161Z,16.17
2022-08-30T01:07:52.165Z,16.17
2022-08-30T01:08:52.143Z,16.14
2022-08-30T01:09:52.147Z,16.14
2022-08-30T01:10:52.125Z,16.14
2022-08-30T01:11:52.117Z,16.12
2022-08-30T01:12:52.104Z,16.15
2022-08-30T01:13:52.089Z,16.17
2022-08-30T01:14:52.078Z,16.14
2022-08-30T01:15:52.124Z,16.14
2022-08-30T01:16:52.079Z,16.09
2022-08-30T01:17:52.078Z,16.08
2022-08-30T01:18:52.039Z,16.07
2022-08-30T01:19:52.045Z,16.05
2022-08-30T01:20:52.009Z,16.02
2022-08-30T01:21:52.018Z,16.00
2022-08-30T01:22:51.997Z,16.00
2022-08-30T01:23:52.008Z,16.00
2022-08-30T01:24:51.970Z,16.00
2022-08-30T01:25:51.960Z,15.97
2022-08-30T01:26:51.961Z,15.96
2022-08-30T01:27:51.954Z,15.96
2022-08-30T01:28:51.930Z,15.94
2022-08-30T01:29:51.922Z,15.94
2022-08-30T01:30:51.974Z,15.94
2022-08-30T01:31:51.964Z,15.96
2022-08-30T01:32:51.956Z,15.96
2022-08-30T01:33:51.884Z,15.96
2022-08-30T01:34:51.861Z,15.94
2022-08-30T01:35:51.872Z,15.93
2022-08-30T01:36:51.844Z,15.92
2022-08-30T01:37:52.065Z,15.92
2022-08-30T01:38:51.825Z,15.89
2022-08-30T01:39:51.845Z,15.90
2022-08-30T01:40:51.804Z,15.89
2022-08-30T01:41:51.786Z,15.89
2022-08-30T01:42:51.769Z,15.89
2022-08-30T01:43:51.778Z,15.89
2022-08-30T01:44:51.747Z,15.90
2022-08-30T01:45:51.810Z,15.90
2022-08-30T01:46:51.738Z,15.90
2022-08-30T01:47:51.728Z,15.92
2022-08-30T01:48:54.149Z,15.92
2022-08-30T01:49:51.737Z,15.90
2022-08-30T01:50:51.695Z,15.89
2022-08-30T01:51:51.679Z,15.89
2022-08-30T01:52:52.689Z,15.87
2022-08-30T01:53:51.676Z,15.89
2022-08-30T01:54:51.653Z,15.87
2022-08-30T01:55:52.001Z,15.87
2022-08-30T01:56:51.635Z,15.87
2022-08-30T01:57:51.641Z,15.89
2022-08-30T01:58:51.606Z,15.86
2022-08-30T01:59:51.775Z,15.87
2022-08-30T02:00:51.583Z,15.89
2022-08-30T02:01:51.627Z,15.89
2022-08-30T02:02:51.563Z,15.90
2022-08-30T02:03:51.774Z,15.93
2022-08-30T02:04:51.641Z,15.93
2022-08-30T02:05:51.533Z,15.94
2022-08-30T02:06:51.514Z,16.00
2022-08-30T02:07:51.513Z,16.00
2022-08-30T02:08:51.486Z,16.01
2022-08-30T02:09:51.496Z,15.97
2022-08-30T02:10:51.907Z,15.94
2022-08-30T02:11:51.477Z,15.93
2022-08-30T02:12:51.461Z,15.90
2022-08-30T02:13:51.445Z,15.90
2022-08-30T02:14:51.437Z,15.90
2022-08-30T02:15:51.426Z,15.87
2022-08-30T02:16:51.492Z,15.82
2022-08-30T02:17:51.398Z,15.80
2022-08-30T02:18:51.396Z,15.78
2022-08-30T02:19:51.379Z,15.76
2022-08-30T02:20:51.370Z,15.74
2022-08-30T02:21:51.465Z,15.75
2022-08-30T02:22:51.342Z,15.74
2022-08-30T02:23:51.359Z,15.74
2022-08-30T02:24:51.321Z,15.74
2022-08-30T02:25:51.344Z,15.72
2022-08-30T02:26:51.312Z,15.74
2022-08-30T02:27:51.293Z,15.72
2022-08-30T02:28:51.272Z,15.71
2022-08-30T02:29:51.292Z,15.72
2022-08-30T02:30:51.320Z,15.69
2022-08-30T02:31:51.255Z,15.71
2022-08-30T02:32:52.193Z,15.71
2022-08-30T02:33:51.235Z,15.72
2022-08-30T02:34:51.265Z,15.75
2022-08-30T02:35:51.244Z,15.75
2022-08-30T02:36:51.192Z,15.78
2022-08-30T02:37:51.201Z,15.76
2022-08-30T02:38:51.184Z,15.76
2022-08-30T02:39:51.176Z,15.74
2022-08-30T02:40:51.157Z,15.71
2022-08-30T02:41:51.146Z,15.68
2022-08-30T02:42:51.128Z,15.68
2022-08-30T02:43:51.124Z,15.67
2022-08-30T02:44:51.106Z,15.65
2022-08-30T02:45:51.120Z,15.65
2022-08-30T02:46:51.097Z,15.62
2022-08-30T02:47:51.078Z,15.64
2022-08-30T02:48:51.100Z,15.62
2022-08-30T02:49:51.062Z,15.59
2022-08-30T02:50:51.046Z,15.57
2022-08-30T02:51:51.050Z,15.57
2022-08-30T02:52:51.019Z,15.59
2022-08-30T02:53:51.019Z,15.59
2022-08-30T02:54:51.000Z,15.57
2022-08-30T02:55:51.022Z,15.53
2022-08-30T02:56:50.978Z,15.53
2022-08-30T02:57:50.969Z,15.51
2022-08-30T02:58:50.961Z,15.50
2022-08-30T02:59:50.951Z,15.49
2022-08-30T03:00:50.983Z,15.50
2022-08-30T03:01:50.932Z,15.49
2022-08-30T03:02:50.920Z,15.49
2022-08-30T03:03:50.974Z,15.49
2022-08-30T03:04:50.884Z,15.47
2022-08-30T03:05:50.894Z,15.47
2022-08-30T03:06:50.865Z,15.46
2022-08-30T03:07:50.865Z,15.46
2022-08-30T03:08:50.855Z,15.46
2022-08-30T03:09:50.845Z,15.46
2022-08-30T03:10:50.825Z,15.44
2022-08-30T03:11:50.834Z,15.44
2022-08-30T03:12:50.807Z,15.41
2022-08-30T03:13:50.973Z,15.41
2022-08-30T03:14:50.801Z,15.41
2022-08-30T03:15:50.777Z,15.38
2022-08-30T03:16:50.857Z,15.41
2022-08-30T03:17:50.928Z,15.43
2022-08-30T03:18:51.038Z,15.38
2022-08-30T03:19:50.828Z,15.39
2022-08-30T03:20:54.466Z,15.39
2022-08-30T03:21:51.193Z,15.39
2022-08-30T03:22:50.696Z,15.39
2022-08-30T03:23:50.700Z,15.38
2022-08-30T03:24:50.690Z,15.39
2022-08-30T03:25:50.686Z,15.38
2022-08-30T03:26:50.662Z,15.36
2022-08-30T03:27:50.679Z,15.38
2022-08-30T03:28:50.671Z,15.38
2022-08-30T03:29:51.075Z,15.35
2022-08-30T03:30:50.612Z,15.39
2022-08-30T03:31:52.957Z,15.41
2022-08-30T03:32:50.583Z,15.41
2022-08-30T03:33:50.583Z,15.43
2022-08-30T03:34:50.784Z,15.44
2022-08-30T03:35:50.564Z,15.44
2022-08-30T03:36:51.364Z,15.44
2022-08-30T03:37:55.841Z,15.46
2022-08-30T03:38:51.532Z,15.44
2022-08-30T03:39:50.514Z,15.46
2022-08-30T03:40:50.655Z,15.44
2022-08-30T03:41:50.496Z,15.44
2022-08-30T03:42:50.496Z,15.43
2022-08-30T03:43:50.479Z,15.41
2022-08-30T03:44:50.465Z,15.41
2022-08-30T03:45:50.533Z,15.43
2022-08-30T03:46:50.447Z,15.41
2022-08-30T03:47:50.439Z,15.41
2022-08-30T03:48:50.427Z,15.41
2022-08-30T03:49:50.413Z,15.41
2022-08-30T03:50:50.699Z,15.41
2022-08-30T03:51:51.201Z,15.39
2022-08-30T03:52:50.378Z,15.39
2022-08-30T03:53:50.359Z,15.36
2022-08-30T03:54:50.358Z,15.34
2022-08-30T03:55:50.340Z,15.34
2022-08-30T03:56:50.351Z,15.34
2022-08-30T03:57:50.318Z,15.32
2022-08-30T03:58:50.321Z,15.28
2022-08-30T03:59:50.401Z,15.27
2022-08-30T04:00:50.378Z,15.27
2022-08-30T04:01:50.349Z,15.27
2022-08-30T04:02:50.282Z,15.25
2022-08-30T04:03:50.253Z,15.25
2022-08-30T04:04:50.252Z,15.23
2022-08-30T04:05:50.238Z,15.23
2022-08-30T04:06:50.230Z,15.23
2022-08-30T04:07:51.034Z,15.21
2022-08-30T04:08:50.203Z,15.19
2022-08-30T04:09:50.185Z,15.20
2022-08-30T04:10:50.185Z,15.20
2022-08-30T04:11:50.167Z,15.19
2022-08-30T04:12:50.169Z,15.21
2022-08-30T04:13:50.143Z,15.20
2022-08-30T04:14:50.147Z,15.19
2022-08-30T04:15:50.134Z,15.17
2022-08-30T04:16:50.212Z,15.19
2022-08-30T04:17:50.106Z,15.17
2022-08-30T04:18:50.099Z,15.19
2022-08-30T04:19:50.086Z,15.17
2022-08-30T04:20:50.076Z,15.20
2022-08-30T04:21:50.058Z,15.20
2022-08-30T04:22:50.223Z,15.20
2022-08-30T04:23:50.037Z,15.25
2022-08-30T04:24:50.030Z,15.25
2022-08-30T04:25:50.022Z,15.27
2022-08-30T04:26:50.012Z,15.27
2022-08-30T04:27:49.990Z,15.28
2022-08-30T04:28:49.998Z,15.31
2022-08-30T04:29:49.971Z,15.32
2022-08-30T04:30:49.971Z,15.32
2022-08-30T04:31:49.988Z,15.32
2022-08-30T04:32:49.943Z,15.34
2022-08-30T04:33:49.943Z,15.34
2022-08-30T04:34:50.333Z,15.32
2022-08-30T04:35:49.904Z,15.32
2022-08-30T04:36:49.914Z,15.32
2022-08-30T04:37:49.892Z,15.31
2022-08-30T04:38:50.613Z,15.29
2022-08-30T04:39:49.866Z,15.28
2022-08-30T04:40:49.854Z,15.31
2022-08-30T04:41:49.845Z,15.29
2022-08-30T04:42:49.935Z,15.32
2022-08-30T04:43:49.824Z,15.34
2022-08-30T04:44:49.815Z,15.36
2022-08-30T04:45:49.839Z,15.38
2022-08-30T04:46:49.806Z,15.38
2022-08-30T04:47:49.778Z,15.39
2022-08-30T04:48:49.781Z,15.38
2022-08-30T04:49:49.797Z,15.41
2022-08-30T04:50:49.747Z,15.41
2022-08-30T04:51:49.741Z,15.44
2022-08-30T04:52:49.728Z,15.46
2022-08-30T04:53:49.719Z,15.44
2022-08-30T04:54:49.728Z,15.46
2022-08-30T04:55:49.704Z,15.46
2022-08-30T04:56:49.689Z,15.47
2022-08-30T04:57:49.669Z,15.49
2022-08-30T04:58:49.661Z,15.51
2022-08-30T04:59:49.694Z,15.51
2022-08-30T05:00:49.710Z,15.54
2022-08-30T05:01:49.663Z,15.57
2022-08-30T05:02:49.694Z,15.59
2022-08-30T05:03:49.612Z,15.60
2022-08-30T05:04:49.592Z,15.60
2022-08-30T05:05:50.392Z,15.64
2022-08-30T05:06:49.581Z,15.68
2022-08-30T05:07:49.561Z,15.72
2022-08-30T05:08:49.552Z,15.74
2022-08-30T05:09:49.544Z,15.78
2022-08-30T05:10:49.535Z,15.82
2022-08-30T05:11:49.524Z,15.87
2022-08-30T05:12:49.505Z,15.90
2022-08-30T05:13:49.486Z,15.97
2022-08-30T05:14:49.493Z,16.01
2022-08-30T05:15:49.531Z,16.05
2022-08-30T05:16:49.476Z,16.08
2022-08-30T05:17:49.446Z,16.12
2022-08-30T05:18:49.475Z,16.12
2022-08-30T05:19:49.448Z,16.15
2022-08-30T05:20:49.418Z,16.17
2022-08-30T05:21:49.415Z,16.20
2022-08-30T05:22:49.407Z,16.24
2022-08-30T05:23:49.478Z,16.24
2022-08-30T05:24:49.382Z,16.28
2022-08-30T05:25:49.359Z,16.31
2022-08-30T05:26:49.360Z,16.35
2022-08-30T05:27:49.340Z,16.39
2022-08-30T05:28:50.150Z,16.41
2022-08-30T05:29:49.330Z,16.46
2022-08-30T05:30:49.310Z,16.48
2022-08-30T05:31:49.386Z,16.52
2022-08-30T05:32:49.329Z,16.57
2022-08-30T05:33:49.290Z,16.60
2022-08-30T05:34:49.273Z,16.64
2022-08-30T05:35:49.255Z,16.68
2022-08-30T05:36:49.252Z,16.73
2022-08-30T05:37:49.233Z,16.76
2022-08-30T05:38:49.224Z,16.82
2022-08-30T05:39:51.191Z,16.86
2022-08-30T05:40:49.204Z,16.94
2022-08-30T05:41:49.259Z,17.01
2022-08-30T05:42:49.184Z,17.07
2022-08-30T05:43:49.201Z,17.15
2022-08-30T05:44:49.204Z,17.19
2022-08-30T05:45:49.155Z,17.25
2022-08-30T05:46:49.190Z,17.30
2022-08-30T05:47:49.585Z,17.34
2022-08-30T05:48:49.124Z,17.38
2022-08-30T05:49:49.109Z,17.43
2022-08-30T05:50:49.860Z,17.48
2022-08-30T05:51:49.077Z,17.54
2022-08-30T05:52:49.089Z,17.55
2022-08-30T05:53:49.079Z,17.59
2022-08-30T05:54:49.059Z,17.64
2022-08-30T05:55:49.838Z,17.66
2022-08-30T05:56:49.049Z,17.68
2022-08-30T05:57:49.010Z,17.71
2022-08-30T05:58:49.630Z,17.71
2022-08-30T05:59:48.990Z,17.72
2022-08-30T06:00:48.990Z,17.71
2022-08-30T06:01:49.033Z,17.77
2022-08-30T06:02:48.995Z,17.79
2022-08-30T06:03:48.959Z,17.81
2022-08-30T06:04:48.960Z,17.79
2022-08-30T06:05:48.953Z,17.82
2022-08-30T06:06:48.933Z,17.81
2022-08-30T06:07:48.912Z,17.82
2022-08-30T06:08:48.918Z,17.84
2022-08-30T06:09:48.901Z,17.84
2022-08-30T06:10:48.884Z,17.89
2022-08-30T06:11:48.885Z,17.92
2022-08-30T06:12:48.861Z,17.93
2022-08-30T06:13:48.844Z,17.99
2022-08-30T06:14:48.843Z,18.05
2022-08-30T06:15:48.875Z,18.07
2022-08-30T06:16:48.817Z,18.14
2022-08-30T06:17:48.804Z,18.17
2022-08-30T06:18:48.827Z,18.20
2022-08-30T06:19:48.785Z,18.21
2022-08-30T06:20:50.279Z,18.23
2022-08-30T06:21:48.766Z,18.27
2022-08-30T06:22:48.858Z,18.33
2022-08-30T06:23:49.560Z,18.39
2022-08-30T06:24:57.735Z,18.42
2022-08-30T06:25:49.722Z,18.48
2022-08-30T06:26:48.708Z,18.54
2022-08-30T06:27:50.429Z,18.58
2022-08-30T06:28:48.712Z,18.63
2022-08-30T06:29:48.680Z,18.67
2022-08-30T06:30:48.678Z,18.72
2022-08-30T06:31:48.741Z,18.72
2022-08-30T06:32:48.651Z,18.78
2022-08-30T06:33:48.630Z,18.78
2022-08-30T06:34:48.622Z,18.80
2022-08-30T06:35:58.860Z,18.81
2022-08-30T06:36:49.614Z,18.82
2022-08-30T06:37:48.611Z,18.81
2022-08-30T06:38:48.574Z,18.82
2022-08-30T06:39:48.563Z,18.84
2022-08-30T06:40:48.612Z,18.88
2022-08-30T06:41:48.545Z,18.92
2022-08-30T06:42:48.544Z,18.94
2022-08-30T06:43:49.338Z,18.92
2022-08-30T06:44:48.526Z,18.95
2022-08-30T06:45:48.497Z,18.99
2022-08-30T06:46:48.574Z,19.07
2022-08-30T06:47:48.490Z,19.07
2022-08-30T06:48:48.767Z,19.08
2022-08-30T06:49:48.477Z,19.14
2022-08-30T06:50:48.967Z,19.16
2022-08-30T06:51:48.438Z,19.19
2022-08-30T06:52:48.430Z,19.22
2022-08-30T06:53:48.438Z,19.26
2022-08-30T06:54:48.408Z,19.28
2022-08-30T06:55:48.702Z,19.29
2022-08-30T06:56:58.051Z,19.31
2022-08-30T06:57:49.401Z,19.33
2022-08-30T06:58:48.363Z,19.40
2022-08-30T06:59:48.342Z,19.43
2022-08-30T07:00:48.341Z,19.47
2022-08-30T07:01:48.378Z,19.54
2022-08-30T07:02:48.386Z,19.55
2022-08-30T07:03:48.312Z,19.59
2022-08-30T07:04:48.296Z,19.63
2022-08-30T07:05:48.275Z,19.66
2022-08-30T07:06:48.273Z,19.71
2022-08-30T07:07:48.288Z,19.76
2022-08-30T07:08:48.255Z,19.76
2022-08-30T07:09:48.237Z,19.78
2022-08-30T07:10:48.234Z,19.83
2022-08-30T07:11:48.215Z,19.86
2022-08-30T07:12:48.205Z,19.86
2022-08-30T07:13:48.215Z,19.88
2022-08-30T07:14:48.287Z,19.91
2022-08-30T07:15:48.212Z,19.95
2022-08-30T07:16:51.143Z,19.96
2022-08-30T07:17:48.147Z,20.02
2022-08-30T07:18:48.138Z,20.06
2022-08-30T07:19:48.128Z,20.11
2022-08-30T07:20:48.228Z,20.16
2022-08-30T07:21:48.107Z,20.21
2022-08-30T07:22:48.099Z,20.28
2022-08-30T07:23:52.593Z,20.31
2022-08-30T07:24:49.107Z,20.32
2022-08-30T07:25:48.060Z,20.36
2022-08-30T07:26:48.060Z,20.39
2022-08-30T07:27:48.041Z,20.48
2022-08-30T07:28:48.041Z,20.55
2022-08-30T07:29:48.012Z,20.64
2022-08-30T07:30:48.012Z,20.67
2022-08-30T07:31:47.997Z,20.72
2022-08-30T07:32:47.993Z,20.73
2022-08-30T07:33:47.974Z,20.69
2022-08-30T07:34:47.965Z,20.67
2022-08-30T07:35:47.964Z,20.70
2022-08-30T07:36:47.957Z,20.76
2022-08-30T07:37:47.934Z,20.87
2022-08-30T07:38:47.956Z,20.97
2022-08-30T07:39:48.276Z,21.07
2022-08-30T07:40:48.748Z,21.17
2022-08-30T07:41:47.888Z,21.29
2022-08-30T07:42:47.877Z,21.42
2022-08-30T07:43:47.877Z,21.50
2022-08-30T07:44:47.866Z,21.56
2022-08-30T07:45:47.845Z,21.61
2022-08-30T07:46:47.927Z,21.38
2022-08-30T07:47:47.840Z,21.29
2022-08-30T07:48:47.827Z,21.21
2022-08-30T07:49:47.833Z,21.17
2022-08-30T07:50:47.791Z,21.19
2022-08-30T07:51:47.832Z,21.24
2022-08-30T07:52:47.777Z,21.35
2022-08-30T07:53:47.791Z,21.47
2022-08-30T07:54:47.741Z,21.52
2022-08-30T07:55:48.744Z,21.49
2022-08-30T07:56:47.722Z,21.42
2022-08-30T07:57:47.721Z,21.53
2022-08-30T07:58:47.813Z,21.72
2022-08-30T07:59:47.702Z,21.84
2022-08-30T08:00:47.683Z,21.91
2022-08-30T08:01:47.698Z,21.86
2022-08-30T08:02:48.294Z,21.74
2022-08-30T08:03:47.654Z,21.80
2022-08-30T08:04:47.646Z,21.92
2022-08-30T08:05:47.634Z,22.02
2022-08-30T08:06:47.656Z,22.10
2022-08-30T08:07:47.619Z,22.10
2022-08-30T08:08:47.597Z,22.14
2022-08-30T08:09:47.594Z,22.12
2022-08-30T08:10:47.574Z,22.20
2022-08-30T08:11:47.591Z,22.31
2022-08-30T08:12:47.551Z,22.47
2022-08-30T08:13:53.484Z,22.52
2022-08-30T08:14:48.538Z,22.62
2022-08-30T08:15:47.597Z,22.68
2022-08-30T08:16:47.518Z,22.83
2022-08-30T08:17:47.523Z,23.04
2022-08-30T08:18:47.490Z,23.13
2022-08-30T08:19:47.481Z,22.97
2022-08-30T08:20:47.471Z,22.83
2022-08-30T08:21:50.430Z,22.91
2022-08-30T08:22:48.442Z,23.05
2022-08-30T08:23:47.450Z,23.07
2022-08-30T08:24:47.439Z,23.07
2022-08-30T08:25:48.253Z,23.19
2022-08-30T08:26:47.405Z,23.32
2022-08-30T08:27:47.406Z,23.47
2022-08-30T08:28:47.388Z,23.38
2022-08-30T08:29:47.394Z,23.22
2022-08-30T08:30:48.400Z,23.19
2022-08-30T08:31:47.389Z,23.27
2022-08-30T08:32:47.337Z,23.31
2022-08-30T08:33:47.390Z,23.40
2022-08-30T08:34:47.317Z,23.54
2022-08-30T08:35:47.330Z,23.58
2022-08-30T08:36:47.298Z,23.65
2022-08-30T08:37:47.288Z,23.78
2022-08-30T08:38:47.279Z,23.91
2022-08-30T08:39:47.279Z,24.05
2022-08-30T08:40:47.305Z,24.16
2022-08-30T08:41:47.250Z,24.25
2022-08-30T08:42:47.242Z,24.39
2022-08-30T08:43:47.291Z,24.52
2022-08-30T08:44:50.241Z,24.62
2022-08-30T08:45:48.212Z,24.73
2022-08-30T08:46:47.250Z,24.90
2022-08-30T08:47:47.196Z,24.99
2022-08-30T08:48:59.590Z,24.99
2022-08-30T08:49:48.162Z,24.90
2022-08-30T08:50:47.143Z,24.99
2022-08-30T08:51:47.143Z,25.05
2022-08-30T08:52:47.124Z,25.15
2022-08-30T08:53:47.319Z,25.25
2022-08-30T08:54:47.097Z,25.33
2022-08-30T08:56:47.076Z,25.39
2022-08-30T08:57:47.097Z,25.40
2022-08-30T08:58:47.055Z,25.45
2022-08-30T08:59:47.048Z,25.43
2022-08-30T09:00:47.220Z,25.40
2022-08-30T09:01:47.096Z,25.28
2022-08-30T09:02:47.017Z,25.21
2022-08-30T09:03:47.112Z,25.14
2022-08-30T09:04:47.082Z,25.13
2022-08-30T09:05:46.993Z,25.08
2022-08-30T09:06:46.972Z,25.03
2022-08-30T09:07:46.961Z,24.91
2022-08-30T09:08:46.951Z,24.84
2022-08-30T09:09:46.982Z,24.83
2022-08-30T09:10:50.794Z,24.76
2022-08-30T09:11:46.932Z,24.78
2022-08-30T09:12:46.914Z,24.80
2022-08-30T09:13:47.075Z,24.87
2022-08-30T09:14:46.884Z,24.93
2022-08-30T09:15:51.011Z,25.02
2022-08-30T09:16:47.883Z,25.05
2022-08-30T09:17:46.874Z,25.14
2022-08-30T09:18:51.259Z,25.24
2022-08-30T09:19:47.845Z,25.15
2022-08-30T09:20:46.833Z,25.15
2022-08-30T09:21:46.817Z,25.15
2022-08-30T09:22:47.834Z,25.23
2022-08-30T09:23:46.798Z,25.24
2022-08-30T09:24:46.792Z,25.27
2022-08-30T09:25:46.808Z,25.33
2022-08-30T09:26:46.769Z,25.40
2022-08-30T09:27:46.804Z,25.54
2022-08-30T09:28:47.018Z,25.69
2022-08-30T09:29:46.743Z,25.82
2022-08-30T09:30:47.917Z,25.88
2022-08-30T09:31:46.821Z,25.91
2022-08-30T09:32:46.781Z,26.02
2022-08-30T09:33:46.691Z,26.13
2022-08-30T09:34:46.682Z,26.09
2022-08-30T09:35:46.678Z,25.85
2022-08-30T09:36:46.662Z,25.57
2022-08-30T09:37:46.656Z,25.45
2022-08-30T09:38:46.651Z,25.46
2022-08-30T09:39:46.633Z,25.43
2022-08-30T09:40:46.706Z,25.36
2022-08-30T09:41:46.615Z,25.25
2022-08-30T09:42:46.597Z,25.20
2022-08-30T09:43:46.596Z,25.09
2022-08-30T09:44:46.595Z,25.05
2022-08-30T09:45:46.622Z,25.05
2022-08-30T09:46:46.557Z,25.08
2022-08-30T09:47:46.571Z,25.17
2022-08-30T09:48:46.544Z,25.28
2022-08-30T09:49:46.540Z,25.38
2022-08-30T09:50:46.860Z,25.47
2022-08-30T09:51:46.522Z,25.61
2022-08-30T09:52:46.490Z,25.75
2022-08-30T09:53:55.702Z,25.88
2022-08-30T09:54:47.509Z,26.05
2022-08-30T09:55:47.272Z,26.25
2022-08-30T09:56:46.459Z,26.30
2022-08-30T09:57:46.442Z,26.26
2022-08-30T09:58:46.429Z,26.35
2022-08-30T09:59:46.653Z,26.39
2022-08-30T10:00:46.773Z,26.29
2022-08-30T10:01:46.403Z,26.23
2022-08-30T10:02:46.395Z,26.30
2022-08-30T10:03:46.381Z,26.48
2022-08-30T10:04:46.372Z,26.65
2022-08-30T10:05:46.491Z,26.73
2022-08-30T10:06:46.344Z,26.80
2022-08-30T10:07:46.401Z,26.84
2022-08-30T10:08:46.345Z,26.91
2022-08-30T10:09:47.158Z,27.03
2022-08-30T10:10:46.336Z,27.10
2022-08-30T10:11:46.320Z,27.14
2022-08-30T10:12:46.288Z,27.21
2022-08-30T10:13:46.279Z,27.31
2022-08-30T10:14:46.257Z,27.44
2022-08-30T10:15:46.258Z,27.62
2022-08-30T10:16:46.264Z,27.84
2022-08-30T10:17:46.370Z,27.99
2022-08-30T10:18:46.243Z,28.09
2022-08-30T10:19:46.250Z,28.15
2022-08-30T10:20:46.192Z,28.18
2022-08-30T10:21:46.193Z,28.12
2022-08-30T10:22:46.854Z,28.03
2022-08-30T10:23:46.172Z,27.96
2022-08-30T10:24:46.153Z,27.99
2022-08-30T10:25:46.155Z,27.90
2022-08-30T10:26:46.134Z,27.96
2022-08-30T10:27:46.214Z,27.75
2022-08-30T10:28:46.784Z,27.75
2022-08-30T10:29:46.113Z,27.55
2022-08-30T10:30:46.197Z,27.54
2022-08-30T10:31:46.087Z,27.29
2022-08-30T10:32:46.101Z,27.21
2022-08-30T10:33:46.137Z,26.91
2022-08-30T10:34:46.048Z,26.66
2022-08-30T10:35:46.051Z,26.65
2022-08-30T10:36:46.029Z,26.63
2022-08-30T10:37:46.018Z,26.57
2022-08-30T10:38:46.017Z,26.55
2022-08-30T10:39:46.027Z,26.60
2022-08-30T10:40:46.809Z,26.55
2022-08-30T10:41:45.980Z,26.55
2022-08-30T10:42:46.611Z,26.51
2022-08-30T10:43:45.972Z,26.39
2022-08-30T10:44:46.943Z,26.36
2022-08-30T10:45:46.037Z,26.32
2022-08-30T10:46:45.944Z,26.33
2022-08-30T10:47:45.913Z,26.48
2022-08-30T10:48:47.393Z,26.47
2022-08-30T10:49:45.930Z,26.67
2022-08-30T10:50:45.888Z,26.77
2022-08-30T10:51:45.865Z,26.84
2022-08-30T10:52:45.941Z,27.02
2022-08-30T10:53:45.844Z,27.29
2022-08-30T10:54:46.648Z,27.47
2022-08-30T10:55:50.017Z,27.57
2022-08-30T10:56:45.806Z,27.70
2022-08-30T10:57:45.798Z,27.82
2022-08-30T10:58:45.818Z,27.77
2022-08-30T10:59:46.608Z,27.70
2022-08-30T11:00:45.807Z,27.81
2022-08-30T11:01:46.350Z,27.97
2022-08-30T11:02:45.741Z,28.12
2022-08-30T11:03:46.551Z,28.25
2022-08-30T11:04:45.795Z,28.24
2022-08-30T11:05:45.722Z,28.21
2022-08-30T11:06:45.702Z,28.33
2022-08-30T11:07:45.742Z,28.48
2022-08-30T11:08:46.317Z,28.54
2022-08-30T11:09:45.673Z,28.41
2022-08-30T11:10:49.636Z,28.40
2022-08-30T11:11:45.664Z,28.27
2022-08-30T11:12:46.455Z,28.22
2022-08-30T11:13:45.645Z,28.04
2022-08-30T11:14:45.615Z,28.15
2022-08-30T11:15:45.637Z,28.21
2022-08-30T11:16:45.670Z,28.24
2022-08-30T11:17:45.731Z,28.22
2022-08-30T11:18:45.578Z,28.24
2022-08-30T11:19:46.567Z,28.14
2022-08-30T11:20:45.564Z,28.06
2022-08-30T11:21:46.356Z,27.93
2022-08-30T11:22:45.999Z,27.81
2022-08-30T11:23:45.529Z,27.70
2022-08-30T11:24:45.529Z,27.77
2022-08-30T11:25:45.512Z,27.75
2022-08-30T11:26:45.523Z,27.66
2022-08-30T11:27:45.496Z,27.63
2022-08-30T11:28:45.600Z,27.63
2022-08-30T11:29:45.472Z,27.65
2022-08-30T11:30:45.452Z,27.65
2022-08-30T11:31:45.453Z,27.60
2022-08-30T11:32:45.434Z,27.44
2022-08-30T11:33:46.182Z,27.40
2022-08-30T11:34:45.445Z,27.39
2022-08-30T11:35:48.445Z,27.25
2022-08-30T11:36:46.212Z,27.36
2022-08-30T11:37:45.383Z,27.43
2022-08-30T11:38:45.366Z,27.50
2022-08-30T11:39:45.365Z,27.67
2022-08-30T11:40:45.374Z,27.82
2022-08-30T11:41:47.827Z,28.06
2022-08-30T11:42:45.327Z,28.30
2022-08-30T11:43:46.138Z,28.44
2022-08-30T11:44:45.308Z,28.40
2022-08-30T11:45:45.355Z,28.51
2022-08-30T11:46:45.403Z,28.62
2022-08-30T11:47:45.281Z,28.81
2022-08-30T11:48:53.643Z,28.98
2022-08-30T11:49:46.360Z,29.09
2022-08-30T11:50:48.246Z,29.28
2022-08-30T11:51:46.677Z,29.19
2022-08-30T11:52:46.242Z,29.23
2022-08-30T11:53:45.222Z,29.42
2022-08-30T11:54:45.987Z,29.41
2022-08-30T11:55:45.250Z,29.36
2022-08-30T11:56:45.184Z,29.37
2022-08-30T11:57:45.187Z,29.41
2022-08-30T11:58:45.156Z,29.57
2022-08-30T11:59:45.164Z,29.68
2022-08-30T12:00:51.454Z,29.80
2022-08-30T12:01:50.639Z,30.01
2022-08-30T12:02:46.214Z,30.26
2022-08-30T12:03:45.168Z,30.07
2022-08-30T12:04:45.098Z,29.83
2022-08-30T12:05:45.098Z,29.85
2022-08-30T12:06:45.090Z,29.90
2022-08-30T12:07:45.069Z,30.15
2022-08-30T12:08:45.069Z,30.38
2022-08-30T12:09:45.049Z,30.49
2022-08-30T12:10:45.050Z,30.60
2022-08-30T12:11:45.107Z,30.83
2022-08-30T12:12:45.022Z,30.84
2022-08-30T12:13:45.011Z,31.04
2022-08-30T12:14:45.001Z,31.07
2022-08-30T12:15:44.993Z,31.02
2022-08-30T12:16:45.286Z,31.13
2022-08-30T12:17:44.964Z,31.14
2022-08-30T12:18:44.970Z,31.25
2022-08-30T12:19:49.116Z,31.31
2022-08-30T12:20:45.945Z,31.50
2022-08-30T12:21:45.328Z,31.58
2022-08-30T12:22:44.915Z,31.51
2022-08-30T12:23:44.993Z,31.26
2022-08-30T12:24:44.921Z,30.84
2022-08-30T12:25:44.883Z,30.80
2022-08-30T12:26:44.878Z,30.79
2022-08-30T12:27:44.859Z,30.77
2022-08-30T12:28:44.858Z,30.88
2022-08-30T12:29:44.950Z,30.70
2022-08-30T12:30:46.498Z,30.70
2022-08-30T12:31:44.850Z,30.70
2022-08-30T12:32:44.840Z,30.70
2022-08-30T12:33:44.798Z,30.58
2022-08-30T12:34:44.791Z,30.65
2022-08-30T12:35:44.790Z,30.79
2022-08-30T12:36:44.762Z,30.73
2022-08-30T12:37:44.763Z,30.55
2022-08-30T12:38:44.754Z,30.22
2022-08-30T12:39:44.732Z,30.04
2022-08-30T12:40:44.771Z,30.01
2022-08-30T12:41:44.724Z,30.05
2022-08-30T12:42:44.718Z,30.10
2022-08-30T12:43:44.696Z,30.19
2022-08-30T12:44:44.686Z,30.08
2022-08-30T12:45:44.720Z,30.11
2022-08-30T12:46:44.677Z,30.11
2022-08-30T12:47:44.680Z,30.20
2022-08-30T12:48:44.648Z,30.29
2022-08-30T12:49:44.629Z,30.39
2022-08-30T12:50:44.629Z,30.46
2022-08-30T12:51:44.610Z,30.43
2022-08-30T12:52:44.601Z,30.38
2022-08-30T12:53:44.590Z,30.16
2022-08-30T12:54:44.588Z,30.13